Time;durP1;ratioP1;P1;durP2;ratioP2;P2;SDS_P1;SDS_P2;PMS_P1;PMS_P2;Temp;Humidity;BMP_temperature;BMP_pressure;BME280_temperature;BME280_humidity;BME280_pressure;Samples;Min_cycle;Max_cycle;Signal;HPM_P1;HPM_P2
2023/09/27 00:01:24;;;;;;;9.50;8.27;;;;;;;14.49;100.00;155082.03;4906146;29;20496;-87
2023/09/27 00:03:50;;;;;;;8.67;7.77;;;;;;;14.45;100.00;155072.97;4905756;29;20463;-87
2023/09/27 00:06:17;;;;;;;8.50;7.67;;;;;;;14.41;100.00;155062.56;4919329;29;20471;-87
2023/09/27 00:08:44;;;;;;;8.47;7.63;;;;;;;14.38;100.00;155054.75;4899345;29;20475;-87
2023/09/27 00:11:10;;;;;;;9.03;7.93;;;;;;;14.32;100.00;155037.91;4903303;29;20905;-86
2023/09/27 00:13:37;;;;;;;7.63;6.83;;;;;;;14.26;100.00;155022.25;4908187;29;20512;-86
2023/09/27 00:16:05;;;;;;;7.43;6.70;;;;;;;14.22;100.00;155011.84;4895668;29;20492;-86
2023/09/27 00:18:31;;;;;;;7.70;6.90;;;;;;;14.15;100.00;154993.69;4907392;29;20853;-86
2023/09/27 00:20:58;;;;;;;8.13;7.43;;;;;;;14.09;100.00;154979.41;4912208;29;20464;-86
2023/09/27 00:23:25;;;;;;;7.90;7.03;;;;;;;14.03;100.00;154963.84;4914954;29;20449;-87
2023/09/27 00:25:51;;;;;;;9.37;8.50;;;;;;;14.04;100.00;154967.72;4928892;29;20483;-86
2023/09/27 00:28:18;;;;;;;8.23;7.20;;;;;;;14.04;100.00;154966.41;4912477;29;20453;-87
2023/09/27 00:30:44;;;;;;;9.67;8.67;;;;;;;14.00;100.00;154957.31;4927860;29;21070;-86
2023/09/27 00:33:12;;;;;;;8.37;7.47;;;;;;;13.98;100.00;154952.13;4923129;29;20900;-87
2023/09/27 00:35:39;;;;;;;8.77;7.90;;;;;;;13.98;100.00;154950.81;4915187;29;20508;-86
2023/09/27 00:38:06;;;;;;;8.00;7.07;;;;;;;13.94;100.00;154941.78;4916158;29;20464;-86
2023/09/27 00:40:32;;;;;;;8.13;7.33;;;;;;;13.95;100.00;154943.09;4889384;29;20616;-86
2023/09/27 00:42:59;;;;;;;8.53;7.73;;;;;;;13.96;100.00;154945.66;4908920;29;20918;-87
2023/09/27 00:45:26;;;;;;;8.87;7.97;;;;;;;13.95;100.00;154943.09;4910432;29;20451;-86
2023/09/27 00:47:54;;;;;;;8.57;6.90;;;;;;;13.96;100.00;154946.94;4912015;29;20550;-88
2023/09/27 00:50:23;;;;;;;8.03;7.23;;;;;;;13.96;100.00;154946.94;4914936;29;20463;-86
2023/09/27 00:52:50;;;;;;;9.17;7.43;;;;;;;13.93;100.00;154937.84;4914804;29;20448;-86
2023/09/27 00:55:20;;;;;;;7.83;7.00;;;;;;;13.90;100.00;154930.06;4898441;29;20453;-87
2023/09/27 00:57:48;;;;;;;6.97;6.00;;;;;;;13.88;100.00;154924.88;4932739;29;20934;-86
2023/09/27 01:00:15;;;;;;;7.37;6.17;;;;;;;13.87;100.00;154922.31;4898387;29;21024;-87
2023/09/27 01:02:42;;;;;;;6.70;6.07;;;;;;;13.85;100.00;154917.06;4910174;29;20488;-87
2023/09/27 01:05:11;;;;;;;8.40;6.80;;;;;;;13.89;100.00;154927.50;4890714;29;20459;-87
2023/09/27 01:07:40;;;;;;;10.13;7.07;;;;;;;13.85;100.00;154918.38;4938974;29;21098;-88
2023/09/27 01:10:08;;;;;;;7.50;6.80;;;;;;;13.83;100.00;154911.91;4930757;29;20529;-87
2023/09/27 01:12:35;;;;;;;7.77;7.00;;;;;;;13.83;100.00;154913.22;4899404;29;20471;-86
2023/09/27 01:15:02;;;;;;;6.87;6.27;;;;;;;13.83;100.00;154913.22;4898937;29;20462;-86
2023/09/27 01:17:28;;;;;;;7.00;6.30;;;;;;;13.79;100.00;154901.53;4916390;29;20474;-87
2023/09/27 01:19:55;;;;;;;6.50;5.90;;;;;;;13.78;100.00;154898.91;4918099;29;20467;-88
2023/09/27 01:22:21;;;;;;;7.80;6.50;;;;;;;13.77;100.00;154897.63;4916606;29;20448;-88
2023/09/27 01:24:51;;;;;;;6.70;6.00;;;;;;;13.77;100.00;154896.31;4900701;29;20440;-88
2023/09/27 01:27:19;;;;;;;7.77;5.97;;;;;;;13.76;100.00;154895.06;4900133;29;20948;-88
2023/09/27 01:29:45;;;;;;;7.50;6.00;;;;;;;13.76;100.00;154893.75;4891514;29;20469;-88
2023/09/27 01:32:12;;;;;;;6.77;5.63;;;;;;;13.73;100.00;154885.94;4896285;29;20979;-88
2023/09/27 01:34:39;;;;;;;6.37;5.77;;;;;;;13.72;100.00;154884.63;4936533;29;20549;-87
2023/09/27 01:37:07;;;;;;;6.90;6.13;;;;;;;13.73;100.00;154885.94;4921337;29;20489;-88
2023/09/27 01:39:34;;;;;;;6.63;5.93;;;;;;;13.73;100.00;154885.94;4914315;29;20459;-88
2023/09/27 01:42:02;;;;;;;6.50;5.90;;;;;;;13.72;100.00;154884.63;4930841;29;20443;-87
2023/09/27 01:44:28;;;;;;;6.67;5.87;;;;;;;13.69;100.00;154876.84;4896250;29;20854;-88
2023/09/27 01:46:55;;;;;;;6.30;5.67;;;;;;;13.67;100.00;154870.34;4924273;29;20583;-88
2023/09/27 01:49:23;;;;;;;6.07;5.47;;;;;;;13.69;100.00;154875.53;4889594;29;20564;-87
2023/09/27 01:51:50;;;;;;;5.70;5.17;;;;;;;13.70;100.00;154878.16;4891933;29;20445;-87
2023/09/27 01:54:16;;;;;;;6.13;5.53;;;;;;;13.72;100.00;154884.63;4915266;29;20468;-87
2023/09/27 01:56:43;;;;;;;6.40;5.53;;;;;;;13.72;100.00;154884.63;4907873;29;20502;-88
2023/09/27 01:59:11;;;;;;;7.23;6.53;;;;;;;13.70;100.00;154878.16;4916710;29;20451;-88
2023/09/27 02:01:38;;;;;;;6.00;5.40;;;;;;;13.69;100.00;154876.84;4903963;29;20479;-87
2023/09/27 02:04:05;;;;;;;7.10;6.50;;;;;;;13.65;100.00;154865.19;4891969;29;20481;-87
2023/09/27 02:06:31;;;;;;;6.03;5.40;;;;;;;13.61;100.00;154856.06;4924615;29;20469;-87
2023/09/27 02:08:59;;;;;;;6.50;5.80;;;;;;;13.64;100.00;154862.56;4895832;29;20536;-87
2023/09/27 02:11:26;;;;;;;10.23;6.57;;;;;;;13.60;100.00;154853.50;4911847;29;20462;-88
2023/09/27 02:13:53;;;;;;;5.77;5.20;;;;;;;13.58;100.00;154848.28;4910953;29;20468;-87
2023/09/27 02:16:21;;;;;;;8.10;6.10;;;;;;;13.56;100.00;154841.78;4887215;29;20485;-88
2023/09/27 02:18:49;;;;;;;7.00;6.30;;;;;;;13.53;100.00;154834.06;4908369;29;20450;-87
2023/09/27 02:21:15;;;;;;;7.17;6.50;;;;;;;13.47;100.00;154819.78;4905164;29;20516;-87
2023/09/27 02:23:42;;;;;;;7.63;6.83;;;;;;;13.46;100.00;154817.16;4904394;29;20474;-87
2023/09/27 02:26:09;;;;;;;7.47;6.50;;;;;;;13.43;100.00;154810.66;4894328;29;20465;-88
2023/09/27 02:28:35;;;;;;;6.47;5.77;;;;;;;13.40;100.00;154802.88;4894781;29;20528;-88
2023/09/27 02:31:03;;;;;;;7.17;6.47;;;;;;;13.40;100.00;154801.56;4917281;29;20460;-88
2023/09/27 02:33:31;;;;;;;6.67;6.07;;;;;;;13.36;100.00;154791.22;4895459;29;20460;-88
2023/09/27 02:35:58;;;;;;;8.07;6.23;;;;;;;13.36;100.00;154792.53;4932882;29;20875;-88
2023/09/27 02:38:25;;;;;;;6.80;6.17;;;;;;;13.34;100.00;154787.28;4909328;29;20468;-88
2023/09/27 02:40:52;;;;;;;6.80;6.10;;;;;;;13.33;100.00;154783.44;4897767;29;20491;-87
2023/09/27 02:43:19;;;;;;;6.87;6.17;;;;;;;13.31;100.00;154778.25;4911629;29;20555;-88
2023/09/27 02:45:45;;;;;;;8.63;6.53;;;;;;;13.30;100.00;154776.94;4906518;29;20483;-87
2023/09/27 02:48:12;;;;;;;7.60;6.90;;;;;;;13.31;100.00;154779.56;4914116;29;20492;-88
2023/09/27 02:50:40;;;;;;;6.47;5.80;;;;;;;13.30;100.00;154776.94;4910115;29;20472;-88
2023/09/27 02:53:07;;;;;;;7.47;6.40;;;;;;;13.28;100.00;154770.44;4905782;29;20460;-88
2023/09/27 02:55:34;;;;;;;7.20;6.43;;;;;;;13.26;100.00;154766.53;4899778;29;20453;-87
2023/09/27 02:58:01;;;;;;;8.20;7.10;;;;;;;13.27;100.00;154769.13;4904562;29;20492;-88
2023/09/27 03:00:28;;;;;;;7.93;7.13;;;;;;;13.25;100.00;154763.97;4909906;29;20476;-88
2023/09/27 03:02:56;;;;;;;7.33;6.60;;;;;;;13.24;100.00;154761.34;4898541;29;20576;-88
2023/09/27 03:05:23;;;;;;;7.90;6.23;;;;;;;13.24;100.00;154760.03;4914604;29;20622;-88
2023/09/27 03:07:51;;;;;;;7.73;7.03;;;;;;;13.21;100.00;154753.56;4912209;29;20469;-88
2023/09/27 03:10:18;;;;;;;8.37;7.10;;;;;;;13.18;100.00;154744.50;4909910;29;20997;-88
2023/09/27 03:12:47;;;;;;;7.30;6.60;;;;;;;13.16;100.00;154740.59;4904907;29;20457;-88
2023/09/27 03:15:14;;;;;;;6.70;6.00;;;;;;;13.13;100.00;154732.78;4913587;29;20461;-88
2023/09/27 03:17:42;;;;;;;7.00;6.30;;;;;;;13.10;100.00;154723.75;4895515;29;20477;-88
2023/09/27 03:20:15;;;;;;;7.57;6.77;;;;;;;13.03;100.00;154706.81;4919495;29;20476;-87
2023/09/27 03:22:42;;;;;;;7.87;7.07;;;;;;;13.01;100.00;154701.63;4913577;29;20520;-88
2023/09/27 03:25:10;;;;;;;8.73;7.27;;;;;;;13.00;100.00;154699.03;4897371;29;20842;-88
2023/09/27 03:27:37;;;;;;;9.27;7.20;;;;;;;12.97;100.00;154689.97;4896786;29;20553;-88
2023/09/27 03:30:05;;;;;;;7.50;6.80;;;;;;;12.91;100.00;154674.41;4913716;29;20449;-87
2023/09/27 03:32:32;;;;;;;8.70;7.90;;;;;;;12.89;100.00;154670.53;4896857;29;20441;-87
2023/09/27 03:34:59;;;;;;;8.83;7.93;;;;;;;12.85;100.00;154660.13;4897864;29;20465;-88
2023/09/27 03:37:27;;;;;;;11.23;9.20;;;;;;;12.82;100.00;154652.31;4910621;29;20548;-88
2023/09/27 03:39:55;;;;;;;9.07;7.30;;;;;;;12.73;100.00;154629.00;4912013;29;20461;-87
2023/09/27 03:42:24;;;;;;;11.83;8.57;;;;;;;12.66;100.00;154610.81;4912049;29;20465;-87
2023/09/27 03:44:51;;;;;;;11.00;8.90;;;;;;;12.65;100.00;154608.25;4910525;29;20913;-88
2023/09/27 03:47:18;;;;;;;9.67;8.77;;;;;;;12.58;100.00;154590.06;4919690;29;20447;-87
2023/09/27 03:49:44;;;;;;;10.33;8.07;;;;;;;12.57;100.00;154587.50;4911396;29;20520;-87
2023/09/27 03:52:12;;;;;;;8.13;7.33;;;;;;;12.54;100.00;154581.03;4893591;29;20465;-88
2023/09/27 03:54:38;;;;;;;9.20;8.30;;;;;;;12.53;100.00;154577.09;4890020;29;20470;-87
2023/09/27 03:57:05;;;;;;;9.27;8.27;;;;;;;12.49;100.00;154566.75;4911995;29;20483;-87
2023/09/27 03:59:33;;;;;;;12.00;7.40;;;;;;;12.46;100.00;154558.97;4897731;29;20453;-87
2023/09/27 04:02:01;;;;;;;9.20;7.77;;;;;;;12.46;100.00;154558.97;4912652;29;20489;-87
2023/09/27 04:04:28;;;;;;;8.60;7.80;;;;;;;12.44;100.00;154553.78;4913782;29;20449;-87
2023/09/27 04:06:54;;;;;;;8.87;7.93;;;;;;;12.42;100.00;154548.56;4909969;29;20461;-86
2023/09/27 04:09:23;;;;;;;9.80;8.47;;;;;;;12.43;100.00;154551.19;4884859;29;20472;-87
2023/09/27 04:11:49;;;;;;;7.90;7.17;;;;;;;12.41;100.00;154546.00;4912085;29;20475;-87
2023/09/27 04:14:16;;;;;;;8.03;7.23;;;;;;;12.35;100.00;154531.75;4896950;29;20461;-87
2023/09/27 04:16:44;;;;;;;8.77;7.43;;;;;;;12.30;100.00;154517.47;4912184;29;20477;-87
2023/09/27 04:19:10;;;;;;;10.57;8.53;;;;;;;12.30;100.00;154517.47;4909386;29;20461;-86
2023/09/27 04:21:37;;;;;;;8.30;7.50;;;;;;;12.32;100.00;154523.94;4907664;29;20480;-86
2023/09/27 04:24:04;;;;;;;8.90;8.00;;;;;;;12.31;100.00;154520.09;4902108;29;20487;-87
2023/09/27 04:26:31;;;;;;;8.77;7.87;;;;;;;12.33;100.00;154526.56;4912779;29;20505;-86
2023/09/27 04:29:00;;;;;;;9.10;8.13;;;;;;;12.40;100.00;154543.41;4900336;29;20461;-86
2023/09/27 04:31:26;;;;;;;9.17;7.97;;;;;;;12.43;100.00;154551.19;4910366;29;21038;-86
2023/09/27 04:33:54;;;;;;;9.00;8.10;;;;;;;12.44;100.00;154553.78;4903470;29;20486;-86
2023/09/27 04:36:21;;;;;;;9.50;7.30;;;;;;;12.46;100.00;154560.28;4905562;29;21006;-85
2023/09/27 04:38:49;;;;;;;8.90;8.00;;;;;;;12.49;100.00;154566.75;4912357;29;20468;-86
2023/09/27 04:41:16;;;;;;;8.37;7.57;;;;;;;12.47;100.00;154562.84;4913242;29;20508;-86
2023/09/27 04:43:43;;;;;;;9.47;8.50;;;;;;;12.52;100.00;154574.53;4913958;29;20534;-85
2023/09/27 04:46:12;;;;;;;9.73;8.70;;;;;;;12.52;100.00;154574.53;4898119;29;20464;-85
2023/09/27 04:48:38;;;;;;;9.00;8.00;;;;;;;12.52;100.00;154574.53;4914766;29;20464;-85
2023/09/27 04:51:06;;;;;;;9.63;7.10;;;;;;;12.49;100.00;154566.75;4911252;29;20843;-85
2023/09/27 04:53:37;;;;;;;9.57;7.80;;;;;;;12.48;100.00;154564.16;4911860;29;20470;-85
2023/09/27 04:56:11;;;;;;;9.10;7.80;;;;;;;12.49;100.00;154568.06;4913584;29;20467;-85
2023/09/27 04:58:38;;;;;;;8.53;7.63;;;;;;;12.47;100.00;154561.59;4912042;29;20820;-85
2023/09/27 05:01:05;;;;;;;9.93;8.40;;;;;;;12.47;100.00;154561.59;4906354;29;20496;-85
2023/09/27 05:03:32;;;;;;;9.70;8.70;;;;;;;12.48;100.00;154564.16;4914751;29;20461;-85
2023/09/27 05:05:59;;;;;;;8.67;7.87;;;;;;;12.48;100.00;154564.16;4903919;29;20465;-85
2023/09/27 05:08:27;;;;;;;8.37;7.53;;;;;;;12.45;100.00;154556.34;4917108;29;20461;-85
2023/09/27 05:10:54;;;;;;;9.37;8.00;;;;;;;12.42;100.00;154548.56;4902113;29;20553;-85
2023/09/27 05:13:21;;;;;;;8.23;7.43;;;;;;;12.39;100.00;154540.84;4917278;29;20544;-85
2023/09/27 05:15:48;;;;;;;8.97;7.80;;;;;;;12.39;100.00;154540.84;4916895;29;20460;-85
2023/09/27 05:18:16;;;;;;;10.10;8.43;;;;;;;12.40;100.00;154543.41;4903783;29;20618;-85
2023/09/27 05:20:44;;;;;;;9.27;7.90;;;;;;;12.41;100.00;154547.31;4903829;29;20462;-85
2023/09/27 05:23:11;;;;;;;10.70;8.03;;;;;;;12.43;100.00;154551.19;4916728;29;20571;-85
2023/09/27 05:25:39;;;;;;;9.40;8.30;;;;;;;12.42;100.00;154548.56;4902091;29;20465;-85
2023/09/27 05:28:06;;;;;;;8.60;7.70;;;;;;;12.43;100.00;154552.50;4902691;29;20719;-85
2023/09/27 05:30:32;;;;;;;9.63;7.90;;;;;;;12.44;100.00;154555.09;4917567;29;20966;-86
2023/09/27 05:32:59;;;;;;;12.33;7.70;;;;;;;12.46;100.00;154558.97;4913818;29;20478;-86
2023/09/27 05:35:25;;;;;;;8.63;7.73;;;;;;;12.47;100.00;154561.59;4915407;29;20461;-85
2023/09/27 05:37:52;;;;;;;8.43;7.53;;;;;;;12.48;100.00;154565.44;4919510;29;20475;-85
2023/09/27 05:40:19;;;;;;;9.37;8.40;;;;;;;12.50;100.00;154569.31;4902263;29;20875;-85
2023/09/27 05:42:47;;;;;;;8.17;7.37;;;;;;;12.50;100.00;154570.63;4918493;29;21412;-85
2023/09/27 05:45:13;;;;;;;9.07;8.17;;;;;;;12.53;100.00;154577.09;4918921;29;20469;-85
2023/09/27 05:47:41;;;;;;;8.00;7.20;;;;;;;12.53;100.00;154577.09;4898307;29;20532;-85
2023/09/27 05:50:09;;;;;;;9.17;8.17;;;;;;;12.54;100.00;154579.72;4915610;29;20863;-85
2023/09/27 05:52:35;;;;;;;8.20;7.40;;;;;;;12.56;100.00;154584.91;4918374;29;20441;-85
2023/09/27 05:55:05;;;;;;;9.03;8.17;;;;;;;12.56;100.00;154584.91;4912611;29;20856;-84
2023/09/27 05:57:31;;;;;;;8.97;7.73;;;;;;;12.57;100.00;154587.50;4918162;29;20470;-82
2023/09/27 06:00:00;;;;;;;8.90;8.00;;;;;;;12.67;100.00;154613.44;4901170;29;20571;-82
2023/09/27 06:02:30;;;;;;;10.50;9.40;;;;;;;12.74;100.00;154632.88;4914202;29;20509;-82
2023/09/27 06:05:00;;;;;;;8.90;8.10;;;;;;;12.77;100.00;154639.38;4909670;29;20456;-82
2023/09/27 06:07:27;;;;;;;10.77;8.93;;;;;;;12.81;100.00;154649.75;4915056;29;20453;-82
2023/09/27 06:09:53;;;;;;;9.60;8.40;;;;;;;12.92;100.00;154677.00;4919395;29;20578;-82
2023/09/27 06:12:20;;;;;;;9.20;8.20;;;;;;;13.07;100.00;154717.25;4901509;29;20464;-82
2023/09/27 06:14:47;;;;;;;8.40;7.60;;;;;;;13.27;100.00;154769.13;4917573;29;20453;-82
2023/09/27 06:17:17;;;;;;;11.23;8.00;;;;;;;13.52;100.00;154831.44;4911414;29;20492;-81
2023/09/27 06:19:44;;;;;;;9.43;8.20;;;;;;;13.79;100.00;154902.78;4915936;29;20559;-82
2023/09/27 06:22:13;;;;;;;8.70;7.80;;;;;;;14.06;100.00;154971.59;4912443;29;20461;-83
2023/09/27 06:24:40;;;;;;;9.17;8.27;;;;;;;14.29;100.00;155031.38;4914917;29;20463;-82
2023/09/27 06:27:07;;;;;;;9.10;8.20;;;;;;;14.50;100.00;155085.97;4912674;29;20549;-82
2023/09/27 06:29:34;;;;;;;10.47;8.60;;;;;;;14.74;100.00;155145.69;4915419;29;20489;-82
2023/09/27 06:32:01;;;;;;;8.50;7.70;;;;;;;14.90;100.00;155188.56;4917568;29;20996;-82
2023/09/27 06:34:29;;;;;;;9.17;8.20;;;;;;;15.09;100.00;155237.91;4913783;29;20468;-82
2023/09/27 06:36:56;;;;;;;8.80;7.90;;;;;;;15.29;100.00;155287.31;4915938;29;20479;-82
2023/09/27 06:39:23;;;;;;;8.87;7.27;;;;;;;15.40;100.00;155315.91;4915839;29;20491;-82
2023/09/27 06:41:50;;;;;;;8.17;7.37;;;;;;;15.51;100.00;155345.88;4915720;29;20456;-82
2023/09/27 06:44:18;;;;;;;7.93;7.13;;;;;;;15.62;100.00;155374.41;4913281;29;20559;-82
2023/09/27 06:46:45;;;;;;;8.27;7.37;;;;;;;15.74;100.00;155405.66;4917501;29;20515;-82
2023/09/27 06:49:13;;;;;;;11.37;8.13;;;;;;;15.85;99.78;155432.94;4901349;29;20489;-82
2023/09/27 06:51:40;;;;;;;8.27;7.47;;;;;;;16.00;99.04;155470.63;4901005;29;20455;-82
2023/09/27 06:54:07;;;;;;;7.90;7.10;;;;;;;16.19;98.58;155520.03;4915093;29;20469;-83
2023/09/27 06:56:34;;;;;;;7.90;7.00;;;;;;;16.39;97.31;155572.06;4917852;29;20453;-82
2023/09/27 06:59:00;;;;;;;8.37;7.43;;;;;;;16.67;96.73;155644.97;4900177;29;20691;-82
2023/09/27 07:01:27;;;;;;;8.50;7.70;;;;;;;16.89;94.75;155702.19;4917147;29;20490;-83
2023/09/27 07:03:55;;;;;;;7.73;6.93;;;;;;;17.11;93.87;155756.84;4931608;29;20468;-82
2023/09/27 07:06:21;;;;;;;11.07;7.93;;;;;;;17.34;93.40;155816.72;4916733;29;20467;-83
2023/09/27 07:08:52;;;;;;;12.13;7.90;;;;;;;17.54;92.17;155870.16;4919033;29;21117;-83
2023/09/27 07:11:20;;;;;;;7.90;7.20;;;;;;;17.73;91.69;155918.31;4921640;29;20459;-82
2023/09/27 07:13:46;;;;;;;8.10;7.30;;;;;;;17.97;91.42;155980.81;4919359;29;20468;-82
2023/09/27 07:16:21;;;;;;;8.13;7.33;;;;;;;18.17;89.66;156032.88;4904170;29;20459;-82
2023/09/27 07:18:49;;;;;;;7.90;7.17;;;;;;;18.39;88.80;156088.88;4903747;29;20486;-83
2023/09/27 07:21:17;;;;;;;7.57;6.87;;;;;;;18.57;87.57;156135.84;4913068;29;20447;-82
2023/09/27 07:23:43;;;;;;;7.70;7.00;;;;;;;18.78;87.01;156189.22;4935693;29;20452;-82
2023/09/27 07:26:11;;;;;;;8.63;6.90;;;;;;;18.92;86.40;156224.41;4930223;29;20459;-82
2023/09/27 07:28:38;;;;;;;7.87;7.17;;;;;;;19.11;84.91;156273.94;4936101;29;20474;-82
2023/09/27 07:31:05;;;;;;;7.57;6.87;;;;;;;19.36;82.88;156339.09;4917157;29;20468;-82
2023/09/27 07:33:32;;;;;;;8.33;7.00;;;;;;;19.62;82.55;156405.66;4941072;29;20462;-82
2023/09/27 07:35:58;;;;;;;7.43;6.80;;;;;;;19.73;79.17;156435.59;4919688;29;20829;-82
2023/09/27 07:38:26;;;;;;;7.27;6.57;;;;;;;19.89;79.12;156477.34;4905297;29;20512;-82
2023/09/27 07:40:52;;;;;;;7.87;6.83;;;;;;;20.04;78.87;156515.19;4907208;29;20570;-83
2023/09/27 07:43:20;;;;;;;6.63;6.03;;;;;;;20.17;78.59;156547.75;4935013;29;20838;-82
2023/09/27 07:45:47;;;;;;;6.43;5.83;;;;;;;20.36;79.38;156598.66;4921860;29;21035;-83
2023/09/27 07:48:14;;;;;;;7.23;6.53;;;;;;;20.34;75.80;156592.13;4905428;29;20888;-82
2023/09/27 07:50:41;;;;;;;6.80;6.20;;;;;;;20.44;76.01;156618.22;4920809;29;20575;-82
2023/09/27 07:53:08;;;;;;;6.73;6.13;;;;;;;20.55;77.44;156648.22;4919362;29;20896;-83
2023/09/27 07:55:43;;;;;;;6.13;5.50;;;;;;;20.67;77.58;156676.94;4937546;29;20462;-83
2023/09/27 07:58:12;;;;;;;5.90;5.40;;;;;;;20.70;76.64;156684.78;4890088;29;20470;-83
2023/09/27 08:00:43;;;;;;;9.40;5.70;;;;;;;20.79;76.20;156709.53;4919687;29;20480;-83
2023/09/27 08:03:10;;;;;;;7.33;6.00;;;;;;;20.84;76.95;156721.28;4936615;29;20915;-83
2023/09/27 08:05:42;;;;;;;6.03;5.43;;;;;;;20.87;76.80;156729.09;4917444;29;20829;-83
2023/09/27 08:08:10;;;;;;;6.57;5.90;;;;;;;20.86;75.54;156726.53;4907343;29;20445;-83
2023/09/27 08:10:43;;;;;;;5.47;4.97;;;;;;;20.76;77.19;156700.44;4904215;29;20456;-83
2023/09/27 08:13:11;;;;;;;7.00;6.30;;;;;;;20.70;76.09;156684.78;4910308;29;21009;-83
2023/09/27 08:15:38;;;;;;;7.60;6.90;;;;;;;20.71;76.90;156687.34;4921888;29;20467;-83
2023/09/27 08:18:27;;;;;;;6.67;5.77;;;;;;;20.56;77.96;156650.84;4909525;29;20483;-83
2023/09/27 08:20:54;;;;;;;6.80;6.10;;;;;;;20.46;76.51;156623.47;4899816;29;20590;-83
2023/09/27 08:23:22;;;;;;;6.50;5.90;;;;;;;20.43;76.05;156615.63;4908324;29;20561;-80
2023/09/27 08:25:49;;;;;;;5.70;5.20;;;;;;;20.40;75.99;156609.09;4917470;29;20463;-80
2023/09/27 08:28:16;;;;;;;6.07;5.10;;;;;;;20.36;75.83;156598.66;4922543;29;20538;-80
2023/09/27 08:30:42;;;;;;;5.50;5.00;;;;;;;20.30;77.54;156581.72;4922453;29;20452;-82
2023/09/27 08:33:09;;;;;;;6.50;5.80;;;;;;;20.16;78.29;156545.13;4935668;29;20522;-81
2023/09/27 08:35:37;;;;;;;5.53;5.03;;;;;;;20.07;77.34;156522.94;4902039;29;20467;-81
2023/09/27 08:38:04;;;;;;;5.80;5.30;;;;;;;20.12;77.21;156536.00;4905555;29;20481;-81
2023/09/27 08:40:31;;;;;;;6.77;5.10;;;;;;;20.22;76.94;156562.13;4922635;29;20452;-82
2023/09/27 08:42:59;;;;;;;5.97;5.13;;;;;;;20.24;76.99;156566.06;4931145;29;20467;-81
2023/09/27 08:45:27;;;;;;;6.47;5.43;;;;;;;20.27;76.38;156575.19;4913056;29;20468;-81
2023/09/27 08:47:54;;;;;;;6.13;5.63;;;;;;;20.29;77.98;156580.41;4901966;29;20466;-82
2023/09/27 08:50:21;;;;;;;6.23;5.63;;;;;;;20.26;77.25;156571.25;4905251;29;20572;-82
2023/09/27 08:52:50;;;;;;;6.70;6.10;;;;;;;20.27;76.26;156575.19;4916056;29;20494;-81
2023/09/27 08:55:18;;;;;;;6.50;5.90;;;;;;;20.32;76.20;156588.25;4889490;29;20500;-82
2023/09/27 08:57:49;;;;;;;7.13;6.43;;;;;;;20.37;76.67;156599.97;4938326;29;20452;-81
2023/09/27 09:00:19;;;;;;;6.50;5.90;;;;;;;20.41;76.03;156610.44;4929303;29;20700;-81
2023/09/27 09:03:12;;;;;;;6.10;5.60;;;;;;;20.44;76.05;156618.22;4914529;29;20480;-82
2023/09/27 09:05:40;;;;;;;6.87;6.27;;;;;;;20.33;75.54;156590.81;4933204;29;20456;-82
2023/09/27 09:08:09;;;;;;;6.60;6.00;;;;;;;20.23;76.25;156564.69;4938847;29;20513;-82
2023/09/27 09:10:39;;;;;;;6.97;5.57;;;;;;;20.26;77.89;156572.56;4912165;29;20937;-82
2023/09/27 09:13:06;;;;;;;6.63;5.87;;;;;;;20.26;77.57;156571.25;4888498;29;20467;-81
2023/09/27 09:15:40;;;;;;;5.90;5.40;;;;;;;20.21;77.87;156558.19;4922050;29;20538;-81
2023/09/27 09:18:08;;;;;;;7.97;6.40;;;;;;;20.22;78.06;156560.81;4918710;29;20958;-81
2023/09/27 09:20:49;;;;;;;6.33;5.73;;;;;;;20.15;79.27;156543.81;4918842;29;20465;-81
2023/09/27 09:23:30;;;;;;;6.23;5.50;;;;;;;20.19;80.79;156552.97;4906179;29;20459;-81
2023/09/27 09:25:58;;;;;;;6.20;5.60;;;;;;;20.13;77.98;156537.31;4935495;29;20552;-81
2023/09/27 09:28:25;;;;;;;6.57;5.87;;;;;;;20.26;77.65;156572.56;4917625;29;20878;-82
2023/09/27 09:30:52;;;;;;;6.20;5.60;;;;;;;20.29;80.88;156579.09;4920522;29;20658;-81
2023/09/27 09:33:20;;;;;;;6.87;5.83;;;;;;;20.25;79.14;156570.00;4906386;29;20455;-81
2023/09/27 09:35:47;;;;;;;7.00;6.07;;;;;;;20.29;77.74;156580.41;4921073;29;20463;-81
2023/09/27 09:38:24;;;;;;;6.20;5.50;;;;;;;20.38;75.98;156603.91;4905193;29;20525;-82
2023/09/27 09:40:56;;;;;;;8.47;6.87;;;;;;;20.40;75.92;156607.78;4920320;29;20943;-82
2023/09/27 09:43:34;;;;;;;6.50;5.90;;;;;;;20.43;76.33;156616.94;4905929;29;20487;-81
2023/09/27 09:46:03;;;;;;;6.73;6.13;;;;;;;20.31;76.00;156585.63;4917460;29;20975;-81
2023/09/27 09:48:30;;;;;;;7.37;6.60;;;;;;;20.34;77.35;156593.44;4906511;29;20783;-82
2023/09/27 09:51:03;;;;;;;7.50;6.80;;;;;;;20.28;77.63;156577.78;4915916;29;20491;-82
2023/09/27 09:53:29;;;;;;;6.97;6.37;;;;;;;20.25;78.51;156570.00;4934233;29;20531;-82
2023/09/27 09:56:00;;;;;;;10.03;6.60;;;;;;;20.35;76.50;156596.06;4930927;29;20468;-82
2023/09/27 09:58:31;;;;;;;7.60;6.80;;;;;;;20.38;77.03;156603.91;4906534;29;20943;-82
2023/09/27 10:00:59;;;;;;;6.00;5.40;;;;;;;20.49;76.19;156632.56;4919118;29;20844;-82
2023/09/27 10:03:31;;;;;;;6.00;5.50;;;;;;;20.51;76.64;156637.81;4925496;29;20543;-82
2023/09/27 10:06:01;;;;;;;6.07;5.47;;;;;;;20.58;77.31;156654.75;4914335;29;20456;-82
2023/09/27 10:08:33;;;;;;;6.10;5.60;;;;;;;20.55;77.30;156646.91;4920244;29;20450;-82
2023/09/27 10:11:03;;;;;;;7.30;6.60;;;;;;;20.56;76.98;156649.53;4915733;29;20547;-82
2023/09/27 10:13:30;;;;;;;6.17;5.57;;;;;;;20.50;76.32;156633.88;4933745;29;21017;-82
2023/09/27 10:15:57;;;;;;;7.10;5.20;;;;;;;20.51;75.93;156636.50;4917895;29;20462;-82
2023/09/27 10:18:33;;;;;;;5.63;5.10;;;;;;;20.51;75.82;156636.50;4917249;29;20566;-82
2023/09/27 10:21:08;;;;;;;4.90;4.40;;;;;;;20.57;76.24;156653.44;4905278;29;20486;-82
2023/09/27 10:23:58;;;;;;;5.97;5.03;;;;;;;20.67;76.13;156676.94;4898910;29;20547;-82
2023/09/27 10:26:35;;;;;;;6.87;4.90;;;;;;;20.72;75.52;156689.97;4918788;29;20460;-82
2023/09/27 10:29:12;;;;;;;5.47;4.90;;;;;;;20.76;75.83;156701.72;4931093;29;20526;-82
2023/09/27 10:32:14;;;;;;;4.90;4.40;;;;;;;20.95;73.61;156750.00;4919539;29;20888;-83
2023/09/27 10:34:42;;;;;;;5.27;4.70;;;;;;;21.04;73.01;156774.81;4932499;29;20466;-82
2023/09/27 10:37:08;;;;;;;4.80;4.30;;;;;;;21.09;72.63;156786.59;4914310;29;20466;-82
2023/09/27 10:39:38;;;;;;;7.13;4.50;;;;;;;21.15;74.04;156803.53;4903305;29;20986;-82
2023/09/27 10:42:05;;;;;;;5.17;4.50;;;;;;;21.17;72.90;156807.47;4902804;29;20463;-83
2023/09/27 10:44:32;;;;;;;5.00;4.53;;;;;;;21.13;73.92;156797.00;4920259;29;20452;-83
2023/09/27 10:47:00;;;;;;;5.53;4.10;;;;;;;21.22;71.12;156820.53;4917930;29;20475;-83
2023/09/27 10:49:30;;;;;;;4.40;3.90;;;;;;;21.30;71.41;156840.09;4915797;29;20466;-82
2023/09/27 10:51:58;;;;;;;4.43;3.83;;;;;;;21.33;71.19;156847.94;4917584;29;20482;-83
2023/09/27 10:54:28;;;;;;;5.17;4.30;;;;;;;21.26;73.22;156830.94;4917820;29;20467;-82
2023/09/27 10:56:56;;;;;;;6.20;4.37;;;;;;;21.14;72.48;156799.63;4914243;29;20464;-82
2023/09/27 10:59:23;;;;;;;4.53;4.13;;;;;;;21.15;71.74;156802.25;4932317;29;20618;-82
2023/09/27 11:01:50;;;;;;;5.20;3.77;;;;;;;21.26;71.97;156829.66;4920016;29;20487;-82
2023/09/27 11:04:21;;;;;;;4.43;4.03;;;;;;;21.50;70.60;156893.59;4911836;29;20514;-82
2023/09/27 11:06:48;;;;;;;6.93;4.40;;;;;;;21.63;69.91;156926.28;4922265;29;20463;-83
2023/09/27 11:09:19;;;;;;;4.87;4.40;;;;;;;21.66;68.38;156935.38;4919706;29;20835;-83
2023/09/27 11:11:47;;;;;;;5.40;4.90;;;;;;;21.59;69.04;156915.81;4923570;29;20454;-82
2023/09/27 11:14:14;;;;;;;4.63;4.23;;;;;;;21.48;71.86;156887.06;4890710;29;20612;-82
2023/09/27 11:16:40;;;;;;;4.67;4.23;;;;;;;21.34;70.97;156851.81;4921414;29;20572;-82
2023/09/27 11:19:07;;;;;;;4.23;3.93;;;;;;;21.43;71.27;156875.34;4921272;29;21008;-82
2023/09/27 11:21:33;;;;;;;4.57;4.17;;;;;;;21.45;71.83;156880.53;4921641;29;20456;-82
2023/09/27 11:24:03;;;;;;;4.47;4.07;;;;;;;21.58;70.11;156914.47;4909227;29;20452;-82